createdAt,value
2017-11-18T00:01:47.098Z,6.20
2017-11-18T00:04:17.052Z,6.21
2017-11-18T00:06:46.221Z,6.24
2017-11-18T00:09:16.286Z,6.26
2017-11-18T00:11:45.462Z,6.28
2017-11-18T00:14:14.738Z,6.26
2017-11-18T00:16:43.922Z,6.21
2017-11-18T00:19:13.889Z,6.18
2017-11-18T00:21:43.269Z,6.21
2017-11-18T00:24:12.499Z,6.08
2017-11-18T00:26:43.214Z,6.02
2017-11-18T00:29:12.379Z,5.93
2017-11-18T00:31:41.567Z,5.88
2017-11-18T00:34:11.503Z,5.83
2017-11-18T00:36:40.715Z,5.77
2017-11-18T00:39:09.882Z,5.77
2017-11-18T00:41:39.069Z,5.76
2017-11-18T00:44:08.217Z,5.76
2017-11-18T00:46:37.402Z,5.78
2017-11-18T00:49:06.715Z,5.74
2017-11-18T00:51:35.922Z,5.74
2017-11-18T00:54:05.108Z,5.67
2017-11-18T00:56:34.386Z,5.68
2017-11-18T00:59:03.617Z,5.66
2017-11-18T01:01:32.860Z,5.63
2017-11-18T01:04:02.034Z,5.63
2017-11-18T01:06:31.214Z,5.61
2017-11-18T01:09:00.458Z,5.62
2017-11-18T01:11:29.631Z,5.60
2017-11-18T01:13:59.601Z,5.58
2017-11-18T01:16:28.853Z,5.58
2017-11-18T01:18:58.900Z,5.57
2017-11-18T01:21:28.831Z,5.58
2017-11-18T01:23:58.020Z,5.53
2017-11-18T01:26:27.208Z,5.49
2017-11-18T01:28:56.378Z,5.43
2017-11-18T01:31:26.379Z,5.44
2017-11-18T01:33:56.470Z,5.40
2017-11-18T01:36:25.660Z,5.40
2017-11-18T01:38:56.666Z,5.35
2017-11-18T01:41:25.957Z,5.30
2017-11-18T01:43:55.286Z,5.29
2017-11-18T01:46:24.494Z,5.27
2017-11-18T01:48:53.772Z,5.26
2017-11-18T01:51:22.998Z,5.20
2017-11-18T01:53:52.314Z,5.16
2017-11-18T01:56:21.477Z,5.15
2017-11-18T01:58:50.742Z,5.10
2017-11-18T02:01:19.911Z,5.09
2017-11-18T02:03:49.143Z,5.05
2017-11-18T02:06:18.378Z,5.05
2017-11-18T02:08:47.564Z,5.08
2017-11-18T02:11:16.758Z,5.06
2017-11-18T02:13:45.943Z,5.09
2017-11-18T02:16:15.110Z,5.01
2017-11-18T02:18:45.070Z,5.00
2017-11-18T02:21:14.217Z,5.00
2017-11-18T02:23:44.418Z,4.99
2017-11-18T02:26:13.578Z,4.97
2017-11-18T02:28:42.720Z,4.92
2017-11-18T02:31:13.416Z,4.91
2017-11-18T02:33:42.721Z,4.91
2017-11-18T02:36:11.897Z,4.88
2017-11-18T02:38:41.102Z,4.89
2017-11-18T02:41:10.299Z,4.88
2017-11-18T02:43:39.462Z,4.89
2017-11-18T02:46:09.401Z,4.90
2017-11-18T02:48:38.553Z,4.93
2017-11-18T02:51:07.729Z,4.93
2017-11-18T02:53:36.883Z,4.93
2017-11-18T02:56:06.075Z,4.90
2017-11-18T02:58:35.246Z,4.90
2017-11-18T03:01:05.195Z,4.91
2017-11-18T03:03:34.366Z,4.92
2017-11-18T03:06:03.640Z,4.95
2017-11-18T03:08:32.903Z,4.98
2017-11-18T03:11:02.084Z,4.94
2017-11-18T03:13:31.366Z,4.94
2017-11-18T03:16:01.320Z,5.00
2017-11-18T03:18:30.500Z,5.02
2017-11-18T03:20:59.784Z,5.10
2017-11-18T03:23:29.039Z,5.15
2017-11-18T03:25:58.204Z,5.15
2017-11-18T03:28:27.397Z,5.17
2017-11-18T03:30:56.720Z,5.16
2017-11-18T03:33:25.902Z,5.17
2017-11-18T03:35:55.155Z,5.18
2017-11-18T03:38:25.097Z,5.20
2017-11-18T03:40:54.629Z,5.19
2017-11-18T03:43:23.803Z,5.23
2017-11-18T03:45:52.996Z,5.26
2017-11-18T03:48:22.180Z,5.31
2017-11-18T03:50:51.380Z,5.28
2017-11-18T03:53:20.630Z,5.28
2017-11-18T03:55:49.798Z,5.26
2017-11-18T03:58:19.115Z,5.30
2017-11-18T04:00:53.799Z,5.29
2017-11-18T04:03:23.027Z,5.32
2017-11-18T04:05:52.189Z,5.39
2017-11-18T04:08:21.378Z,5.42
2017-11-18T04:10:51.319Z,5.43
2017-11-18T04:13:20.473Z,5.48
2017-11-18T04:15:50.417Z,5.54
2017-11-18T04:18:19.613Z,5.57
2017-11-18T04:20:48.882Z,5.61
2017-11-18T04:23:18.846Z,5.69
2017-11-18T04:25:48.124Z,5.71
2017-11-18T04:28:17.285Z,5.73
2017-11-18T04:30:46.594Z,5.74
2017-11-18T04:33:16.642Z,5.77
2017-11-18T04:35:45.821Z,5.81
2017-11-18T04:38:15.756Z,5.84
2017-11-18T04:40:44.939Z,5.81
2017-11-18T04:43:14.814Z,5.80
2017-11-18T04:45:44.858Z,5.84
2017-11-18T04:48:15.099Z,5.86
2017-11-18T04:50:44.354Z,5.87
2017-11-18T04:53:13.530Z,5.85
2017-11-18T04:55:42.710Z,5.83
2017-11-18T04:58:11.908Z,5.84
2017-11-18T05:00:41.117Z,5.87
2017-11-18T05:03:10.447Z,5.85
2017-11-18T05:05:40.398Z,5.85
2017-11-18T05:08:09.592Z,5.91
2017-11-18T05:10:38.789Z,5.97
2017-11-18T05:13:07.990Z,6.00
2017-11-18T05:15:37.164Z,6.00
2017-11-18T05:18:07.216Z,6.00
2017-11-18T05:20:37.336Z,6.03
2017-11-18T05:23:07.251Z,6.01
2017-11-18T05:25:36.416Z,5.98
2017-11-18T05:28:06.367Z,6.01
2017-11-18T05:30:35.517Z,6.01
2017-11-18T05:33:04.845Z,6.03
2017-11-18T05:35:34.082Z,6.07
2017-11-18T05:38:03.507Z,6.05
2017-11-18T05:40:34.355Z,6.08
2017-11-18T05:43:04.364Z,6.03
2017-11-18T05:45:35.186Z,6.05
2017-11-18T05:48:05.169Z,6.02
2017-11-18T05:50:34.418Z,6.00
2017-11-18T05:53:03.609Z,6.03
2017-11-18T05:55:32.965Z,6.04
2017-11-18T05:58:02.160Z,6.09
2017-11-18T06:00:31.299Z,6.16
2017-11-18T06:03:01.336Z,6.18
2017-11-18T06:05:31.258Z,6.23
2017-11-18T06:08:00.458Z,6.24
2017-11-18T06:10:29.625Z,6.25
2017-11-18T06:12:59.596Z,6.19
2017-11-18T06:15:28.783Z,6.21
2017-11-18T06:17:57.994Z,6.26
2017-11-18T06:20:27.199Z,6.28
2017-11-18T06:22:56.391Z,6.21
2017-11-18T06:25:25.568Z,6.20
2017-11-18T06:27:54.763Z,6.18
2017-11-18T06:30:23.940Z,6.22
2017-11-18T06:32:53.875Z,6.21
2017-11-18T06:35:23.119Z,6.20
2017-11-18T06:37:52.502Z,6.21
2017-11-18T06:40:21.709Z,6.20
2017-11-18T06:42:50.894Z,6.21
2017-11-18T06:45:20.080Z,6.21
2017-11-18T06:47:49.255Z,6.22
2017-11-18T06:50:18.589Z,6.24
2017-11-18T06:52:47.752Z,6.30
2017-11-18T06:55:17.056Z,6.25
2017-11-18T06:57:46.243Z,6.26
2017-11-18T07:00:16.151Z,6.28
2017-11-18T07:02:45.383Z,6.30
2017-11-18T07:05:14.658Z,6.31
2017-11-18T07:07:43.863Z,6.32
2017-11-18T07:10:13.879Z,6.31
2017-11-18T07:12:43.066Z,6.32
2017-11-18T07:15:13.028Z,6.28
2017-11-18T07:17:42.318Z,6.30
2017-11-18T07:20:11.526Z,6.31
2017-11-18T07:22:40.688Z,6.33
2017-11-18T07:25:10.015Z,6.36
2017-11-18T07:27:39.193Z,6.36
2017-11-18T07:30:08.377Z,6.35
2017-11-18T07:32:37.578Z,6.33
2017-11-18T07:35:06.802Z,6.34
2017-11-18T07:37:35.974Z,6.33
2017-11-18T07:40:05.161Z,6.39
2017-11-18T07:42:34.461Z,6.39
2017-11-18T07:45:03.647Z,6.36
2017-11-18T07:47:32.811Z,6.37
2017-11-18T07:50:03.521Z,6.38
2017-11-18T07:52:32.767Z,6.37
2017-11-18T07:55:02.723Z,6.32
2017-11-18T07:57:31.907Z,6.31
2017-11-18T08:00:01.085Z,6.36
2017-11-18T08:02:30.363Z,6.38
2017-11-18T08:05:00.299Z,6.40
2017-11-18T08:07:30.238Z,6.34
2017-11-18T08:09:59.410Z,6.36
2017-11-18T08:12:28.754Z,6.36
2017-11-18T08:14:57.928Z,6.40
2017-11-18T08:17:27.161Z,6.41
2017-11-18T08:19:56.318Z,6.42
2017-11-18T08:22:25.508Z,6.39
2017-11-18T08:24:54.762Z,6.43
2017-11-18T08:27:23.939Z,6.43
2017-11-18T08:29:53.151Z,6.43
2017-11-18T08:32:22.385Z,6.44
2017-11-18T08:34:51.561Z,6.48
2017-11-18T08:37:21.621Z,6.49
2017-11-18T08:39:50.812Z,6.50
2017-11-18T08:42:19.965Z,6.51
2017-11-18T08:44:49.149Z,6.53
2017-11-18T08:47:18.333Z,6.51
2017-11-18T08:49:47.514Z,6.51
2017-11-18T08:52:16.686Z,6.52
2017-11-18T08:54:45.846Z,6.55
2017-11-18T08:57:15.789Z,6.61
2017-11-18T08:59:44.959Z,6.65
2017-11-18T09:02:14.231Z,6.69
2017-11-18T09:04:43.419Z,6.68
2017-11-18T09:07:12.585Z,6.71
2017-11-18T09:09:41.782Z,6.75
2017-11-18T09:12:11.031Z,6.71
2017-11-18T09:14:40.197Z,6.71
2017-11-18T09:17:10.262Z,6.76
2017-11-18T09:19:39.425Z,6.70
2017-11-18T09:22:08.770Z,6.76
2017-11-18T09:24:38.710Z,6.77
2017-11-18T09:27:07.891Z,6.75
2017-11-18T09:29:38.023Z,6.73
2017-11-18T09:32:07.304Z,6.71
2017-11-18T09:34:37.255Z,6.74
2017-11-18T09:37:06.469Z,6.79
2017-11-18T09:39:35.635Z,6.81
2017-11-18T09:42:04.800Z,6.85
2017-11-18T09:44:34.765Z,6.86
2017-11-18T09:47:03.924Z,6.82
2017-11-18T09:49:33.878Z,6.80
2017-11-18T09:52:03.308Z,6.84
2017-11-18T09:54:32.493Z,6.80
2017-11-18T09:57:01.736Z,6.81
2017-11-18T09:59:30.927Z,6.81
2017-11-18T10:02:00.871Z,6.84
2017-11-18T10:04:30.088Z,6.82
2017-11-18T10:06:59.265Z,6.83
2017-11-18T10:09:28.524Z,6.88
2017-11-18T10:11:57.777Z,6.84
2017-11-18T10:14:27.046Z,6.78
2017-11-18T10:16:56.978Z,6.76
2017-11-18T10:19:26.155Z,6.75
2017-11-18T10:21:56.202Z,6.74
2017-11-18T10:24:25.397Z,6.72
2017-11-18T10:26:54.575Z,6.71
2017-11-18T10:29:23.744Z,6.66
2017-11-18T10:31:53.726Z,6.68
2017-11-18T10:34:22.922Z,6.65
2017-11-18T10:36:52.093Z,6.66
2017-11-18T10:39:21.291Z,6.73
2017-11-18T10:41:50.610Z,6.77
2017-11-18T10:44:19.805Z,6.74
2017-11-18T10:46:48.963Z,6.79
2017-11-18T10:49:18.162Z,6.79
2017-11-18T10:51:47.385Z,6.78
2017-11-18T10:54:16.541Z,6.81
2017-11-18T10:56:45.705Z,6.85
2017-11-18T10:59:15.113Z,6.85
2017-11-18T11:01:44.307Z,6.91
2017-11-18T11:04:13.499Z,6.94
2017-11-18T11:06:42.755Z,6.97
2017-11-18T11:09:11.939Z,6.98
2017-11-18T11:11:41.890Z,6.99
2017-11-18T11:14:11.180Z,7.00
2017-11-18T11:16:40.338Z,7.05
2017-11-18T11:19:10.309Z,7.07
2017-11-18T11:21:39.502Z,7.13
2017-11-18T11:24:08.678Z,7.16
2017-11-18T11:26:37.858Z,7.23
2017-11-18T11:29:07.076Z,7.27
2017-11-18T11:31:36.382Z,7.29
2017-11-18T11:34:05.561Z,7.36
2017-11-18T11:36:35.359Z,7.41
2017-11-18T11:39:04.619Z,7.42
2017-11-18T11:41:34.766Z,7.37
2017-11-18T11:44:04.711Z,7.40
2017-11-18T11:46:34.004Z,7.39
2017-11-18T11:49:03.490Z,7.40
2017-11-18T11:51:33.480Z,7.36
2017-11-18T11:54:02.810Z,7.34
2017-11-18T11:56:32.741Z,7.32
2017-11-18T11:59:01.967Z,7.33
2017-11-18T12:01:31.221Z,7.34
2017-11-18T12:04:00.396Z,7.38
2017-11-18T12:06:30.374Z,7.39
2017-11-18T12:08:59.571Z,7.46
2017-11-18T12:11:28.765Z,7.47
2017-11-18T12:13:58.046Z,7.49
2017-11-18T12:16:27.237Z,7.47
2017-11-18T12:19:45.066Z,7.53
2017-11-18T12:25:25.666Z,7.56
2017-11-18T12:27:54.830Z,7.56
2017-11-18T12:30:24.772Z,7.56
2017-11-18T12:32:53.929Z,7.62
2017-11-18T12:35:23.120Z,7.67
2017-11-18T12:37:52.280Z,7.68
2017-11-18T12:40:21.480Z,7.68
2017-11-18T12:42:50.820Z,7.70
2017-11-18T12:45:20.004Z,7.74
2017-11-18T12:47:49.174Z,7.72
2017-11-18T12:50:18.375Z,7.73
2017-11-18T12:52:47.548Z,7.79
2017-11-18T12:55:16.713Z,7.83
2017-11-18T12:57:46.652Z,7.80
2017-11-18T13:00:15.826Z,7.79
2017-11-18T13:02:45.045Z,7.79
2017-11-18T13:05:14.353Z,7.80
2017-11-18T13:07:43.538Z,7.81
2017-11-18T13:10:12.777Z,7.87
2017-11-18T13:12:41.955Z,7.93
2017-11-18T13:15:11.882Z,7.97
2017-11-18T13:17:41.071Z,8.01
2017-11-18T13:20:10.283Z,8.04
2017-11-18T13:22:39.465Z,8.06
2017-11-18T13:25:08.669Z,8.05
2017-11-18T13:27:39.687Z,8.01
2017-11-18T13:30:08.881Z,7.95
2017-11-18T13:32:38.128Z,7.95
2017-11-18T13:35:07.339Z,7.91
2017-11-18T13:37:37.396Z,7.95
2017-11-18T13:40:07.345Z,7.92
2017-11-18T13:42:36.683Z,7.92
2017-11-18T13:45:05.865Z,7.84
2017-11-18T13:47:36.628Z,7.80
2017-11-18T13:50:06.596Z,7.79
2017-11-18T13:52:35.825Z,7.73
2017-11-18T13:55:05.776Z,7.77
2017-11-18T13:57:35.011Z,7.75
2017-11-18T14:00:04.269Z,7.76
2017-11-18T14:02:33.441Z,7.68
2017-11-18T14:05:03.445Z,7.60
2017-11-18T14:07:32.649Z,7.53
2017-11-18T14:10:01.888Z,7.49
2017-11-18T14:12:31.189Z,7.49
2017-11-18T14:15:00.525Z,7.45
2017-11-18T14:17:31.195Z,7.48
2017-11-18T14:20:00.341Z,7.48
2017-11-18T14:22:29.500Z,7.51
2017-11-18T14:24:58.686Z,7.45
2017-11-18T14:27:27.861Z,7.46
2017-11-18T14:29:57.803Z,7.41
2017-11-18T14:32:27.247Z,7.39
2017-11-18T14:34:56.797Z,7.35
2017-11-18T14:37:26.766Z,7.38
2017-11-18T14:39:55.903Z,7.33
2017-11-18T14:42:25.091Z,7.33
2017-11-18T14:44:55.049Z,7.33
2017-11-18T14:47:24.243Z,7.31
2017-11-18T14:49:53.425Z,7.31
2017-11-18T14:52:22.739Z,7.33
2017-11-18T14:54:51.930Z,7.29
2017-11-18T14:57:21.129Z,7.25
2017-11-18T14:59:50.310Z,7.24
2017-11-18T15:02:19.474Z,7.16
2017-11-18T15:04:48.779Z,7.19
2017-11-18T15:07:17.968Z,7.11
2017-11-18T15:09:48.639Z,7.13
2017-11-18T15:12:17.808Z,7.13
2017-11-18T15:14:52.179Z,7.10
2017-11-18T15:17:26.793Z,7.09
2017-11-18T15:20:01.368Z,7.09
2017-11-18T15:22:35.457Z,7.07
2017-11-18T15:25:10.249Z,7.03
2017-11-18T15:27:39.816Z,7.02
2017-11-18T15:30:14.513Z,7.06
2017-11-18T15:32:44.132Z,7.09
2017-11-18T15:48:50.537Z,7.10
2017-11-18T16:04:52.864Z,5.11
2017-11-18T16:07:22.828Z,4.75
2017-11-18T16:09:52.017Z,4.58
2017-11-18T16:12:21.196Z,4.55
2017-11-18T16:14:50.483Z,4.55
2017-11-18T16:17:19.647Z,4.67
2017-11-18T16:19:48.818Z,4.70
2017-11-18T16:22:17.978Z,4.76
2017-11-18T16:24:47.214Z,4.79
2017-11-18T16:27:16.436Z,4.88
2017-11-18T16:29:45.869Z,4.90
2017-11-18T16:32:15.805Z,5.01
2017-11-18T16:34:45.021Z,5.08
2017-11-18T16:37:14.203Z,5.16
2017-11-18T16:39:43.396Z,5.26
2017-11-18T16:42:12.561Z,5.32
2017-11-18T16:44:42.598Z,5.39
2017-11-18T16:47:11.727Z,5.44
2017-11-18T16:49:40.901Z,5.49
2017-11-18T16:52:10.128Z,5.58
2017-11-18T16:54:39.311Z,5.53
2017-11-18T16:57:09.237Z,5.56
2017-11-18T16:59:39.943Z,5.61
2017-11-18T17:02:09.142Z,5.69
2017-11-18T17:04:38.471Z,5.73
2017-11-18T17:07:07.623Z,5.75
2017-11-18T17:09:36.802Z,5.73
2017-11-18T17:12:06.798Z,5.70
2017-11-18T17:14:35.970Z,5.78
2017-11-18T17:17:05.405Z,5.76
2017-11-18T17:19:34.635Z,5.77
2017-11-18T17:22:03.818Z,5.77
2017-11-18T17:24:33.746Z,5.81
2017-11-18T17:27:02.915Z,5.76
2017-11-18T17:29:32.812Z,5.75
2017-11-18T17:32:02.018Z,5.82
2017-11-18T17:34:32.683Z,5.86
2017-11-18T17:37:01.877Z,5.92
2017-11-18T17:39:31.826Z,5.91
2017-11-18T17:42:01.046Z,5.91
2017-11-18T17:44:30.206Z,5.91
2017-11-18T17:46:59.380Z,5.91
2017-11-18T17:49:28.642Z,5.97
2017-11-18T17:51:59.377Z,5.99
2017-11-18T17:54:28.773Z,6.04
2017-11-18T17:56:57.943Z,6.12
2017-11-18T17:59:27.369Z,6.09
2017-11-18T18:01:56.510Z,6.13
2017-11-18T18:04:25.720Z,6.11
2017-11-18T18:06:54.929Z,6.15
2017-11-18T18:09:24.080Z,6.18
2017-11-18T18:11:54.028Z,6.25
2017-11-18T18:14:23.335Z,6.22
2017-11-18T18:16:52.631Z,6.24
2017-11-18T18:19:22.578Z,6.20
2017-11-18T18:21:51.760Z,6.20
2017-11-18T18:24:20.946Z,6.17
2017-11-18T18:26:50.135Z,6.17
2017-11-18T18:29:19.315Z,6.21
2017-11-18T18:31:48.536Z,6.27
2017-11-18T18:34:17.739Z,6.26
2017-11-18T18:36:46.941Z,6.32
2017-11-18T18:39:16.129Z,6.38
2017-11-18T18:41:45.351Z,6.39
2017-11-18T18:44:14.556Z,6.34
2017-11-18T18:46:43.697Z,6.30
2017-11-18T18:49:13.627Z,6.29
2017-11-18T18:51:42.865Z,6.24
2017-11-18T18:54:12.076Z,6.33
2017-11-18T18:56:42.137Z,6.35
2017-11-18T18:59:11.346Z,6.37
2017-11-18T19:01:40.625Z,6.39
2017-11-18T19:04:09.820Z,6.35
2017-11-18T19:06:39.021Z,6.35
2017-11-18T19:09:08.187Z,6.38
2017-11-18T19:11:37.445Z,6.40
2017-11-18T19:14:06.855Z,6.46
2017-11-18T19:16:37.766Z,6.42
2017-11-18T19:19:06.980Z,6.47
2017-11-18T19:21:36.170Z,6.44
2017-11-18T19:24:05.335Z,6.47
2017-11-18T19:26:34.524Z,6.43
2017-11-18T19:29:04.444Z,6.45
2017-11-18T19:31:33.666Z,6.46
2017-11-18T19:34:02.875Z,6.49
2017-11-18T19:36:32.101Z,6.49
2017-11-18T19:39:01.272Z,6.51
2017-11-18T19:41:30.409Z,6.47
2017-11-18T19:44:00.440Z,6.43
2017-11-18T19:46:31.404Z,6.46
2017-11-18T19:49:00.863Z,6.48
2017-11-18T19:51:30.951Z,6.47
2017-11-18T19:54:00.151Z,6.45
2017-11-18T19:56:29.477Z,6.42
2017-11-18T19:58:59.525Z,6.45
2017-11-18T20:01:29.458Z,6.45
2017-11-18T20:03:58.636Z,6.48
2017-11-18T20:06:27.847Z,6.50
2017-11-18T20:08:57.048Z,6.50
2017-11-18T20:11:26.226Z,6.46
2017-11-18T20:13:55.418Z,6.45
2017-11-18T20:16:24.625Z,6.45
2017-11-18T20:18:53.807Z,6.35
2017-11-18T20:21:23.823Z,6.37
2017-11-18T20:23:53.739Z,6.37
2017-11-18T20:26:22.951Z,6.37
2017-11-18T20:28:52.173Z,6.42
2017-11-18T20:31:21.450Z,6.44
2017-11-18T20:33:51.381Z,6.47
2017-11-18T20:36:20.594Z,6.44
2017-11-18T20:38:49.779Z,6.42
2017-11-18T20:41:19.056Z,6.43
2017-11-18T20:43:48.366Z,6.44
2017-11-18T20:46:17.666Z,6.43
2017-11-18T20:48:46.891Z,6.44
2017-11-18T20:51:16.058Z,6.44
2017-11-18T20:53:45.258Z,6.45
2017-11-18T20:56:14.435Z,6.45
2017-11-18T20:58:43.592Z,6.49
2017-11-18T21:01:14.273Z,6.50
2017-11-18T21:03:43.470Z,6.53
2017-11-18T21:06:12.668Z,6.53
2017-11-18T21:08:42.705Z,6.55
2017-11-18T21:11:11.904Z,6.53
2017-11-18T21:13:41.080Z,6.53
2017-11-18T21:16:10.398Z,6.51
2017-11-18T21:18:39.632Z,6.50
2017-11-18T21:21:10.385Z,6.46
2017-11-18T21:23:40.350Z,6.51
2017-11-18T21:26:09.551Z,6.45
2017-11-18T21:28:38.671Z,6.35
2017-11-18T21:31:07.881Z,6.35
2017-11-18T21:33:37.940Z,6.39
2017-11-18T21:36:07.109Z,6.34
2017-11-18T21:38:37.256Z,6.33
2017-11-18T21:41:06.520Z,6.43
2017-11-18T21:43:36.475Z,6.46
2017-11-18T21:46:05.721Z,6.48
2017-11-18T21:48:34.942Z,6.46
2017-11-18T21:51:04.887Z,6.47
2017-11-18T21:53:34.077Z,6.46
2017-11-18T21:56:03.375Z,6.48
2017-11-18T21:58:32.621Z,6.54
2017-11-18T22:01:01.893Z,6.54
2017-11-18T22:03:31.183Z,6.50
2017-11-18T22:06:00.381Z,6.51
2017-11-18T22:08:29.560Z,6.53
2017-11-18T22:10:58.981Z,6.48
2017-11-18T22:13:28.151Z,6.53
2017-11-18T22:15:57.358Z,6.54
2017-11-18T22:18:26.538Z,6.60
2017-11-18T22:20:55.760Z,6.56
2017-11-18T22:23:25.086Z,6.55
2017-11-18T22:25:55.238Z,6.56
2017-11-18T22:28:25.186Z,6.59
2017-11-18T22:30:54.385Z,6.59
2017-11-18T22:33:23.605Z,6.56
2017-11-18T22:35:53.118Z,6.63
2017-11-18T22:38:22.295Z,6.62
2017-11-18T22:40:51.558Z,6.57
2017-11-18T22:43:21.516Z,6.55
2017-11-18T22:45:50.823Z,6.49
2017-11-18T22:48:20.013Z,6.43
2017-11-18T22:50:49.456Z,6.42
2017-11-18T22:53:20.155Z,6.44
2017-11-18T22:55:49.281Z,6.50
2017-11-18T22:58:18.465Z,6.51
2017-11-18T23:00:47.642Z,6.49
2017-11-18T23:03:16.835Z,6.47
2017-11-18T23:05:46.006Z,6.56
2017-11-18T23:08:15.194Z,6.58
2017-11-18T23:10:44.387Z,6.58
2017-11-18T23:13:14.350Z,6.59
2017-11-18T23:15:43.666Z,6.63
2017-11-18T23:18:12.863Z,6.69
2017-11-18T23:20:42.035Z,6.72
2017-11-18T23:23:11.197Z,6.73
2017-11-18T23:25:40.412Z,6.77
2017-11-18T23:28:09.617Z,6.82
2017-11-18T23:30:38.799Z,6.82
2017-11-18T23:33:07.985Z,6.82
2017-11-18T23:35:37.193Z,6.79
2017-11-18T23:38:06.399Z,6.79
2017-11-18T23:40:36.337Z,6.77
2017-11-18T23:43:05.507Z,6.69
2017-11-18T23:45:34.708Z,6.68
2017-11-18T23:48:03.882Z,6.69
2017-11-18T23:50:33.054Z,6.73
2017-11-18T23:53:03.017Z,6.76
2017-11-18T23:55:32.212Z,6.75
2017-11-18T23:58:01.401Z,6.70
